createdAt,value
2018-02-09T00:01:25.811Z,91.46
2018-02-09T00:03:53.391Z,91.11
2018-02-09T00:06:20.979Z,90.03
2018-02-09T00:08:48.563Z,90.70
2018-02-09T00:11:16.147Z,90.70
2018-02-09T00:13:43.765Z,90.70
2018-02-09T00:16:11.347Z,91.44
2018-02-09T00:18:38.973Z,91.81
2018-02-09T00:21:07.460Z,91.76
2018-02-09T00:23:35.051Z,89.59
2018-02-09T00:26:02.633Z,91.08
2018-02-09T00:28:30.215Z,91.43
2018-02-09T00:30:57.799Z,91.30
2018-02-09T00:33:25.388Z,91.33
2018-02-09T00:35:52.979Z,91.31
2018-02-09T00:38:20.562Z,92.18
2018-02-09T00:40:48.152Z,92.31
2018-02-09T00:43:15.736Z,91.12
2018-02-09T00:45:43.328Z,91.53
2018-02-09T00:48:10.987Z,91.39
2018-02-09T00:50:38.611Z,92.52
2018-02-09T00:53:06.242Z,92.57
2018-02-09T00:55:33.861Z,92.86
2018-02-09T00:58:01.479Z,93.20
2018-02-09T01:00:29.100Z,92.34
2018-02-09T01:02:56.720Z,91.88
2018-02-09T01:05:24.304Z,93.26
2018-02-09T01:07:51.919Z,93.08
2018-02-09T01:10:19.507Z,93.65
2018-02-09T01:12:47.095Z,92.87
2018-02-09T01:15:14.684Z,93.24
2018-02-09T01:17:42.270Z,93.24
2018-02-09T01:20:09.888Z,93.38
2018-02-09T01:22:37.467Z,93.40
2018-02-09T01:25:05.058Z,93.46
2018-02-09T01:27:32.679Z,93.59
2018-02-09T01:30:00.332Z,93.85
2018-02-09T01:32:27.924Z,93.92
2018-02-09T01:34:55.515Z,92.48
2018-02-09T01:37:23.164Z,93.46
2018-02-09T01:39:51.164Z,93.18
2018-02-09T01:42:18.751Z,93.93
2018-02-09T01:44:46.342Z,93.74
2018-02-09T01:47:13.929Z,93.67
2018-02-09T01:49:41.559Z,93.52
2018-02-09T01:52:09.141Z,93.56
2018-02-09T01:54:36.724Z,93.32
2018-02-09T01:57:04.303Z,93.19
2018-02-09T01:59:31.888Z,93.67
2018-02-09T02:01:59.474Z,93.51
2018-02-09T02:04:27.059Z,92.94
2018-02-09T02:06:54.645Z,93.28
2018-02-09T02:09:22.231Z,93.48
2018-02-09T02:11:49.815Z,93.25
2018-02-09T02:14:17.411Z,93.98
2018-02-09T02:16:44.996Z,93.71
2018-02-09T02:19:12.584Z,93.56
2018-02-09T02:21:40.228Z,94.20
2018-02-09T02:24:07.892Z,94.28
2018-02-09T02:26:35.482Z,93.51
2018-02-09T02:29:03.680Z,93.72
2018-02-09T02:31:31.288Z,93.38
2018-02-09T02:33:58.891Z,93.21
2018-02-09T02:36:26.552Z,93.21
2018-02-09T02:38:54.279Z,93.26
2018-02-09T02:41:21.877Z,93.72
2018-02-09T02:43:49.539Z,93.48
2018-02-09T02:46:17.137Z,93.02
2018-02-09T02:48:44.720Z,92.24
2018-02-09T02:51:12.312Z,92.93
2018-02-09T02:53:39.900Z,93.68
2018-02-09T02:56:07.500Z,93.63
2018-02-09T02:58:35.180Z,92.81
2018-02-09T03:01:02.876Z,93.92
2018-02-09T03:03:30.499Z,93.95
2018-02-09T03:05:58.095Z,94.34
2018-02-09T03:08:25.719Z,94.57
2018-02-09T03:10:53.391Z,94.07
2018-02-09T03:13:20.979Z,93.75
2018-02-09T03:15:48.562Z,93.80
2018-02-09T03:18:16.143Z,93.96
2018-02-09T03:20:43.830Z,93.90
2018-02-09T03:23:11.495Z,92.53
2018-02-09T03:25:39.130Z,93.38
2018-02-09T03:28:06.715Z,93.16
2018-02-09T03:30:35.110Z,93.33
2018-02-09T03:33:02.763Z,93.46
2018-02-09T03:35:30.359Z,93.82
2018-02-09T03:37:58.899Z,93.62
2018-02-09T03:40:26.487Z,93.89
2018-02-09T03:42:54.126Z,93.65
2018-02-09T03:45:21.719Z,93.49
2018-02-09T03:47:49.354Z,93.30
2018-02-09T03:50:16.943Z,93.68
2018-02-09T03:52:44.529Z,93.54
2018-02-09T03:55:12.114Z,93.21
2018-02-09T03:57:39.699Z,92.83
2018-02-09T04:00:07.323Z,93.44
2018-02-09T04:02:34.927Z,93.07
2018-02-09T04:05:02.551Z,92.63
2018-02-09T04:07:30.139Z,92.60
2018-02-09T04:09:57.767Z,92.35
2018-02-09T04:12:25.358Z,91.83
2018-02-09T04:14:52.984Z,91.71
2018-02-09T04:17:20.613Z,91.88
2018-02-09T04:19:48.207Z,92.39
2018-02-09T04:22:15.825Z,91.88
2018-02-09T04:24:43.484Z,91.89
2018-02-09T04:27:11.178Z,92.67
2018-02-09T04:29:38.767Z,93.28
2018-02-09T04:32:06.356Z,92.62
2018-02-09T04:34:33.938Z,92.16
2018-02-09T04:37:01.534Z,92.67
2018-02-09T04:39:29.130Z,91.07
2018-02-09T04:41:56.751Z,90.81
2018-02-09T04:44:24.375Z,90.88
2018-02-09T04:46:51.960Z,89.75
2018-02-09T04:49:19.567Z,89.90
2018-02-09T04:51:47.154Z,89.66
2018-02-09T04:54:14.783Z,90.21
2018-02-09T04:56:42.367Z,90.69
2018-02-09T04:59:09.950Z,90.14
2018-02-09T05:01:37.528Z,90.93
2018-02-09T05:04:05.112Z,90.09
2018-02-09T05:06:32.689Z,89.84
2018-02-09T05:09:00.271Z,90.76
2018-02-09T05:11:27.864Z,90.36
2018-02-09T05:13:55.455Z,89.93
2018-02-09T05:16:23.049Z,90.06
2018-02-09T05:18:50.630Z,89.76
2018-02-09T05:21:18.217Z,89.81
2018-02-09T05:23:45.799Z,89.75
2018-02-09T05:26:13.383Z,89.79
2018-02-09T05:28:40.978Z,90.05
2018-02-09T05:31:08.571Z,89.68
2018-02-09T05:33:36.165Z,90.68
2018-02-09T05:36:03.751Z,89.98
2018-02-09T05:38:31.358Z,89.83
2018-02-09T05:40:59.728Z,89.44
2018-02-09T05:43:27.314Z,89.45
2018-02-09T05:45:54.903Z,89.66
2018-02-09T05:48:22.488Z,90.26
2018-02-09T05:50:50.075Z,90.80
2018-02-09T05:53:17.747Z,90.61
2018-02-09T05:55:45.335Z,90.63
2018-02-09T05:58:12.920Z,90.64
2018-02-09T06:00:40.508Z,90.02
2018-02-09T06:03:08.099Z,89.84
2018-02-09T06:05:35.686Z,89.43
2018-02-09T06:08:03.272Z,89.36
2018-02-09T06:10:30.863Z,90.21
2018-02-09T06:12:58.450Z,90.58
2018-02-09T06:15:26.040Z,90.67
2018-02-09T06:17:53.667Z,90.28
2018-02-09T06:20:21.260Z,90.09
2018-02-09T06:22:48.879Z,89.58
2018-02-09T06:25:16.499Z,89.45
2018-02-09T06:27:44.092Z,90.42
2018-02-09T06:30:11.738Z,90.54
2018-02-09T06:32:39.323Z,89.57
2018-02-09T06:35:06.965Z,90.91
2018-02-09T06:37:34.564Z,90.32
2018-02-09T06:40:02.148Z,89.14
2018-02-09T06:42:29.766Z,89.58
2018-02-09T06:44:57.355Z,89.79
2018-02-09T06:47:24.980Z,89.25
2018-02-09T06:49:52.560Z,88.48
2018-02-09T06:52:20.487Z,88.19
2018-02-09T06:54:48.070Z,88.80
2018-02-09T06:57:16.033Z,88.22
2018-02-09T06:59:43.694Z,88.70
2018-02-09T07:02:11.283Z,89.12
2018-02-09T07:04:38.899Z,88.60
2018-02-09T07:07:10.498Z,88.06
2018-02-09T07:09:38.120Z,87.88
2018-02-09T07:12:05.794Z,88.94
2018-02-09T07:14:33.454Z,88.45
2018-02-09T07:17:01.169Z,87.14
2018-02-09T07:19:28.786Z,86.85
2018-02-09T07:21:56.370Z,87.18
2018-02-09T07:24:24.003Z,88.18
2018-02-09T07:26:51.585Z,88.70
2018-02-09T07:29:19.180Z,88.37
2018-02-09T07:31:46.827Z,87.96
2018-02-09T07:34:14.455Z,88.83
2018-02-09T07:36:42.116Z,89.03
2018-02-09T07:39:09.700Z,88.92
2018-02-09T07:41:37.328Z,87.74
2018-02-09T07:44:04.923Z,88.18
2018-02-09T07:46:32.512Z,88.01
2018-02-09T07:49:00.135Z,87.71
2018-02-09T07:51:27.722Z,87.35
2018-02-09T07:53:55.350Z,88.07
2018-02-09T07:56:23.061Z,89.43
2018-02-09T07:58:50.651Z,88.05
2018-02-09T08:01:19.036Z,88.24
2018-02-09T08:03:46.686Z,88.20
2018-02-09T08:06:14.423Z,87.25
2018-02-09T08:08:42.043Z,87.36
2018-02-09T08:11:09.628Z,87.45
2018-02-09T08:13:37.283Z,87.94
2018-02-09T08:16:04.900Z,88.45
2018-02-09T08:18:32.486Z,87.42
2018-02-09T08:21:00.089Z,87.49
2018-02-09T08:23:27.675Z,86.54
2018-02-09T08:25:55.270Z,87.62
2018-02-09T08:28:22.926Z,87.48
2018-02-09T08:30:50.523Z,87.53
2018-02-09T08:33:18.152Z,86.50
2018-02-09T08:35:45.829Z,88.38
2018-02-09T08:38:13.434Z,88.47
2018-02-09T08:40:41.044Z,87.93
2018-02-09T08:43:08.652Z,88.50
2018-02-09T08:45:36.362Z,87.94
2018-02-09T08:48:03.958Z,87.75
2018-02-09T08:50:31.599Z,88.43
2018-02-09T08:52:59.230Z,86.87
2018-02-09T08:55:26.870Z,87.14
2018-02-09T08:57:54.482Z,88.35
2018-02-09T09:00:22.151Z,87.72
2018-02-09T09:02:49.812Z,87.06
2018-02-09T09:05:17.407Z,86.56
2018-02-09T09:07:45.004Z,86.54
2018-02-09T09:10:12.604Z,85.61
2018-02-09T09:12:40.202Z,86.37
2018-02-09T09:15:07.812Z,85.73
2018-02-09T09:17:35.451Z,85.87
2018-02-09T09:20:03.096Z,86.10
2018-02-09T09:22:30.687Z,86.26
2018-02-09T09:24:58.362Z,85.99
2018-02-09T09:27:25.963Z,84.82
2018-02-09T09:29:53.619Z,83.88
2018-02-09T09:32:21.225Z,83.59
2018-02-09T09:34:48.863Z,83.34
2018-02-09T09:37:16.510Z,82.63
2018-02-09T09:39:44.108Z,82.15
2018-02-09T09:42:11.710Z,82.41
2018-02-09T09:44:39.398Z,81.83
2018-02-09T09:47:07.026Z,82.33
2018-02-09T09:49:34.666Z,80.51
2018-02-09T09:52:02.356Z,80.17
2018-02-09T09:54:29.979Z,79.93
2018-02-09T09:56:57.579Z,78.09
2018-02-09T09:59:25.219Z,77.96
2018-02-09T10:01:52.818Z,79.15
2018-02-09T10:04:20.446Z,76.76
2018-02-09T10:06:48.039Z,77.39
2018-02-09T10:09:15.706Z,77.88
2018-02-09T10:11:43.398Z,77.91
2018-02-09T10:14:10.995Z,78.65
2018-02-09T10:16:38.592Z,77.40
2018-02-09T10:19:06.240Z,77.19
2018-02-09T10:21:33.823Z,75.77
2018-02-09T10:24:01.419Z,75.93
2018-02-09T10:26:29.043Z,75.19
2018-02-09T10:28:56.686Z,76.31
2018-02-09T10:31:24.306Z,76.14
2018-02-09T10:33:51.887Z,75.03
2018-02-09T10:36:19.671Z,75.40
2018-02-09T10:38:47.339Z,74.74
2018-02-09T10:41:14.954Z,71.97
2018-02-09T10:43:42.531Z,71.78
2018-02-09T10:46:10.171Z,71.81
2018-02-09T10:48:37.751Z,71.76
2018-02-09T10:51:05.411Z,69.69
2018-02-09T10:53:33.047Z,70.92
2018-02-09T10:56:00.702Z,70.23
2018-02-09T10:58:28.291Z,70.72
2018-02-09T11:00:58.680Z,68.84
2018-02-09T11:03:26.254Z,70.07
2018-02-09T11:05:53.919Z,70.26
2018-02-09T11:08:21.556Z,68.67
2018-02-09T11:10:49.212Z,69.62
2018-02-09T11:13:16.843Z,70.78
2018-02-09T11:15:44.532Z,71.36
2018-02-09T11:18:12.116Z,69.44
2018-02-09T11:20:39.814Z,71.15
2018-02-09T11:23:07.433Z,70.08
2018-02-09T11:25:35.040Z,71.13
2018-02-09T11:28:02.668Z,71.28
2018-02-09T11:30:30.252Z,69.64
2018-02-09T11:32:57.915Z,68.34
2018-02-09T11:35:25.630Z,70.50
2018-02-09T11:37:53.227Z,70.17
2018-02-09T11:40:20.851Z,70.93
2018-02-09T11:42:48.439Z,69.54
2018-02-09T11:45:16.079Z,68.01
2018-02-09T11:47:43.663Z,67.65
2018-02-09T11:50:11.244Z,67.16
2018-02-09T11:52:38.819Z,65.45
2018-02-09T11:55:06.394Z,66.63
2018-02-09T11:57:33.973Z,65.14
2018-02-09T12:00:01.550Z,65.68
2018-02-09T12:02:29.127Z,65.68
2018-02-09T12:04:56.713Z,64.06
2018-02-09T12:07:24.292Z,64.23
2018-02-09T12:09:51.867Z,65.08
2018-02-09T12:12:19.452Z,64.91
2018-02-09T12:14:47.070Z,63.90
2018-02-09T12:17:14.691Z,66.84
2018-02-09T12:19:42.301Z,67.32
2018-02-09T12:22:09.928Z,66.30
2018-02-09T12:24:37.505Z,67.75
2018-02-09T12:27:05.117Z,65.37
2018-02-09T12:29:32.699Z,64.72
2018-02-09T12:32:00.314Z,63.07
2018-02-09T12:34:27.894Z,65.38
2018-02-09T12:36:55.483Z,65.66
2018-02-09T12:39:23.062Z,66.51
2018-02-09T12:41:50.691Z,66.22
2018-02-09T12:44:18.299Z,66.26
2018-02-09T12:46:45.878Z,66.13
2018-02-09T12:49:13.455Z,65.61
2018-02-09T12:51:41.093Z,66.09
2018-02-09T12:54:08.723Z,65.57
2018-02-09T12:56:36.313Z,65.24
2018-02-09T12:59:04.026Z,65.24
2018-02-09T13:01:31.684Z,65.84
2018-02-09T13:03:59.266Z,65.57
2018-02-09T13:06:26.944Z,67.54
2018-02-09T13:08:54.626Z,66.63
2018-02-09T13:11:22.205Z,65.46
2018-02-09T13:13:49.799Z,67.22
2018-02-09T13:16:17.458Z,65.61
2018-02-09T13:18:50.073Z,67.39
2018-02-09T13:21:17.645Z,68.54
2018-02-09T13:23:56.921Z,65.66
2018-02-09T13:26:24.506Z,67.97
2018-02-09T13:28:59.023Z,67.72
2018-02-09T13:31:26.599Z,66.16
2018-02-09T13:33:54.240Z,67.97
2018-02-09T13:36:33.535Z,66.73
2018-02-09T13:39:01.185Z,66.79
2018-02-09T13:41:28.770Z,66.82
2018-02-09T13:43:56.387Z,67.68
2018-02-09T13:46:23.974Z,67.65
2018-02-09T13:48:51.603Z,66.21
2018-02-09T13:51:19.245Z,67.35
2018-02-09T13:53:46.824Z,66.01
2018-02-09T13:56:15.203Z,66.10
2018-02-09T13:58:42.781Z,67.91
2018-02-09T14:01:10.400Z,69.23
2018-02-09T14:03:37.983Z,68.74
2018-02-09T14:06:05.595Z,67.44
2018-02-09T14:08:33.175Z,68.10
2018-02-09T14:11:00.801Z,69.48
2018-02-09T14:13:28.378Z,67.57
2018-02-09T14:15:56.143Z,67.19
2018-02-09T14:18:23.732Z,68.33
2018-02-09T14:20:51.311Z,68.71
2018-02-09T14:23:18.930Z,67.95
2018-02-09T14:25:46.558Z,68.57
2018-02-09T14:28:14.142Z,67.44
2018-02-09T14:30:41.722Z,68.57
2018-02-09T14:33:09.307Z,68.07
2018-02-09T14:35:36.926Z,68.19
2018-02-09T14:38:04.639Z,68.80
2018-02-09T14:40:32.222Z,69.75
2018-02-09T14:42:59.867Z,68.93
2018-02-09T14:45:27.558Z,68.81
2018-02-09T14:47:55.225Z,68.64
2018-02-09T14:50:22.799Z,68.80
2018-02-09T14:52:50.411Z,68.97
2018-02-09T14:55:18.023Z,70.12
2018-02-09T14:57:45.643Z,71.41
2018-02-09T15:00:13.891Z,70.86
2018-02-09T15:02:41.460Z,71.26
2018-02-09T15:05:09.042Z,71.12
2018-02-09T15:07:36.715Z,71.23
2018-02-09T15:10:04.908Z,72.13
2018-02-09T15:12:32.492Z,71.85
2018-02-09T15:15:00.078Z,73.97
2018-02-09T15:17:27.668Z,71.94
2018-02-09T15:19:55.248Z,71.23
2018-02-09T15:22:22.827Z,72.58
2018-02-09T15:24:50.402Z,72.90
2018-02-09T15:27:18.004Z,74.40
2018-02-09T15:29:45.663Z,73.58
2018-02-09T15:32:13.376Z,73.48
2018-02-09T15:34:40.950Z,75.50
2018-02-09T15:37:08.530Z,75.42
2018-02-09T15:39:36.116Z,76.50
2018-02-09T15:42:03.694Z,76.42
2018-02-09T15:44:31.282Z,77.30
2018-02-09T15:46:58.859Z,77.57
2018-02-09T15:49:26.438Z,78.83
2018-02-09T15:51:54.061Z,77.48
2018-02-09T15:54:21.644Z,76.74
2018-02-09T15:56:49.346Z,76.40
2018-02-09T15:59:16.935Z,76.68
2018-02-09T16:01:44.512Z,76.51
2018-02-09T16:04:12.096Z,76.15
2018-02-09T16:06:39.683Z,76.50
2018-02-09T16:09:07.272Z,76.74
2018-02-09T16:11:34.860Z,77.29
2018-02-09T16:14:02.446Z,77.48
2018-02-09T16:16:30.043Z,77.80
2018-02-09T16:18:57.671Z,78.39
2018-02-09T16:21:25.269Z,78.73
2018-02-09T16:23:52.851Z,78.70
2018-02-09T16:26:20.444Z,79.47
2018-02-09T16:28:48.032Z,79.46
2018-02-09T16:31:15.628Z,81.03
2018-02-09T16:33:43.231Z,82.51
2018-02-09T16:36:10.818Z,83.53
2018-02-09T16:38:38.454Z,84.60
2018-02-09T16:41:06.060Z,85.06
2018-02-09T16:43:33.759Z,85.32
2018-02-09T16:46:01.347Z,85.50
2018-02-09T16:48:28.945Z,85.08
2018-02-09T16:50:56.544Z,85.17
2018-02-09T16:53:24.126Z,86.10
2018-02-09T16:55:51.768Z,86.22
2018-02-09T16:58:19.379Z,86.68
2018-02-09T17:00:47.079Z,86.93
2018-02-09T17:03:14.739Z,87.80
2018-02-09T17:05:42.371Z,88.07
2018-02-09T17:08:09.963Z,88.52
2018-02-09T17:10:37.622Z,88.11
2018-02-09T17:13:06.100Z,88.34
2018-02-09T17:15:34.385Z,88.38
2018-02-09T17:18:01.997Z,88.79
2018-02-09T17:20:29.595Z,89.33
2018-02-09T17:22:57.276Z,89.11
2018-02-09T17:25:24.911Z,90.17
2018-02-09T17:27:52.508Z,89.62
2018-02-09T17:30:20.092Z,88.44
2018-02-09T17:32:47.791Z,88.84
2018-02-09T17:35:15.427Z,88.81
2018-02-09T17:37:43.130Z,89.21
2018-02-09T17:40:10.732Z,88.84
2018-02-09T17:42:38.489Z,88.78
2018-02-09T17:45:06.081Z,88.84
2018-02-09T17:47:33.730Z,88.07
2018-02-09T17:50:01.318Z,88.53
2018-02-09T17:52:29.226Z,87.85
2018-02-09T17:54:56.872Z,87.99
2018-02-09T17:57:24.523Z,88.54
2018-02-09T17:59:52.123Z,87.48
2018-02-09T18:02:19.795Z,87.60
2018-02-09T18:04:48.273Z,87.44
2018-02-09T18:07:18.838Z,87.42
2018-02-09T18:09:46.645Z,86.30
2018-02-09T18:12:14.312Z,86.59
2018-02-09T18:14:41.982Z,85.79
2018-02-09T18:17:09.716Z,87.04
2018-02-09T18:19:37.386Z,86.66
2018-02-09T18:22:05.051Z,85.91
2018-02-09T18:24:32.706Z,84.78
2018-02-09T18:27:00.303Z,84.60
2018-02-09T18:29:27.936Z,84.31
2018-02-09T18:31:55.590Z,85.46
2018-02-09T18:34:23.218Z,85.81
2018-02-09T18:36:50.812Z,83.69
2018-02-09T18:39:18.479Z,84.66
2018-02-09T18:41:46.134Z,82.90
2018-02-09T18:44:13.734Z,83.31
2018-02-09T18:46:41.332Z,83.52
2018-02-09T18:49:08.929Z,83.08
2018-02-09T18:51:36.534Z,84.06
2018-02-09T18:54:04.140Z,84.82
2018-02-09T18:56:31.866Z,86.46
2018-02-09T18:58:59.483Z,85.40
2018-02-09T19:01:27.143Z,84.79
2018-02-09T19:03:54.906Z,85.81
2018-02-09T19:06:22.507Z,85.59
2018-02-09T19:08:50.103Z,81.23
2018-02-09T19:11:17.695Z,82.57
2018-02-09T19:13:45.501Z,83.29
2018-02-09T19:16:13.094Z,85.16
2018-02-09T19:18:40.691Z,84.68
2018-02-09T19:21:08.324Z,84.71
2018-02-09T19:23:36.004Z,85.40
2018-02-09T19:26:03.639Z,85.41
2018-02-09T19:28:31.863Z,86.18
2018-02-09T19:30:59.508Z,85.36
2018-02-09T19:33:27.126Z,84.96
2018-02-09T19:35:54.723Z,84.29
2018-02-09T19:38:22.329Z,86.32
2018-02-09T19:40:49.988Z,85.74
2018-02-09T19:43:17.714Z,85.77
2018-02-09T19:45:45.314Z,86.60
2018-02-09T19:48:12.911Z,85.73
2018-02-09T19:50:40.511Z,85.98
2018-02-09T19:53:08.167Z,85.83
2018-02-09T19:55:36.859Z,86.61
2018-02-09T19:58:04.496Z,86.34
2018-02-09T20:00:32.189Z,85.92
2018-02-09T20:02:59.794Z,86.82
2018-02-09T20:05:27.502Z,86.12
2018-02-09T20:07:55.703Z,86.05
2018-02-09T20:10:23.445Z,85.67
2018-02-09T20:12:51.688Z,86.31
2018-02-09T20:15:19.284Z,83.88
2018-02-09T20:17:47.094Z,84.78
2018-02-09T20:20:14.738Z,85.63
2018-02-09T20:22:42.335Z,86.86
2018-02-09T20:25:10.039Z,85.43
2018-02-09T20:27:37.636Z,84.63
2018-02-09T20:30:05.231Z,85.74
2018-02-09T20:32:32.867Z,85.15
2018-02-09T20:35:00.467Z,84.16
2018-02-09T20:37:28.147Z,84.78
2018-02-09T20:39:55.807Z,84.84
2018-02-09T20:42:23.404Z,84.28
2018-02-09T20:44:51.170Z,84.79
2018-02-09T20:47:18.804Z,83.57
2018-02-09T20:49:46.408Z,84.55
2018-02-09T20:52:14.004Z,83.16
2018-02-09T20:54:41.603Z,82.31
2018-02-09T20:57:09.230Z,83.50
2018-02-09T20:59:36.935Z,82.66
2018-02-09T21:02:06.266Z,83.26
2018-02-09T21:04:33.863Z,82.50
2018-02-09T21:07:01.563Z,82.57
2018-02-09T21:09:29.207Z,83.50
2018-02-09T21:11:57.425Z,83.28
2018-02-09T21:14:25.187Z,85.24
2018-02-09T21:16:52.790Z,83.78
2018-02-09T21:19:20.495Z,85.33
2018-02-09T21:21:48.088Z,84.13
2018-02-09T21:24:15.681Z,84.04
2018-02-09T21:26:43.279Z,83.44
2018-02-09T21:29:10.912Z,83.42
2018-02-09T21:31:38.506Z,83.35
2018-02-09T21:34:06.221Z,85.24
2018-02-09T21:36:34.458Z,84.49
2018-02-09T21:39:02.120Z,84.75
2018-02-09T21:41:29.779Z,82.92
2018-02-09T21:43:57.580Z,83.18
2018-02-09T21:46:25.739Z,83.02
2018-02-09T21:48:53.338Z,83.70
2018-02-09T21:51:20.931Z,83.38
2018-02-09T21:53:48.939Z,84.21
2018-02-09T21:56:16.538Z,83.48
2018-02-09T21:58:44.550Z,83.90
2018-02-09T22:01:13.288Z,84.03
2018-02-09T22:03:41.807Z,84.19
2018-02-09T22:06:10.280Z,82.43
2018-02-09T22:08:38.010Z,84.07
2018-02-09T22:11:05.690Z,84.12
2018-02-09T22:13:33.504Z,83.70
2018-02-09T22:16:01.666Z,85.09
2018-02-09T22:18:29.307Z,84.12
2018-02-09T22:20:56.920Z,82.33
2018-02-09T22:23:24.524Z,83.66
2018-02-09T22:25:52.119Z,84.18
2018-02-09T22:28:19.761Z,84.34
2018-02-09T22:30:52.799Z,84.97
2018-02-09T22:33:20.507Z,83.83
2018-02-09T22:35:48.133Z,83.71
2018-02-09T22:38:16.834Z,85.48
2018-02-09T22:40:44.425Z,85.28
2018-02-09T22:43:12.370Z,85.53
2018-02-09T22:45:40.079Z,84.47
2018-02-09T22:48:07.680Z,84.81
2018-02-09T22:50:35.316Z,84.67
2018-02-09T22:53:02.906Z,84.28
2018-02-09T22:55:30.919Z,85.62
2018-02-09T22:57:58.588Z,83.52
2018-02-09T23:00:26.257Z,85.69
2018-02-09T23:02:54.365Z,85.49
2018-02-09T23:05:22.218Z,85.09
2018-02-09T23:07:50.173Z,85.09
2018-02-09T23:10:18.167Z,85.78
2018-02-09T23:12:45.767Z,83.44
2018-02-09T23:15:13.367Z,85.15
2018-02-09T23:17:40.967Z,84.80
2018-02-09T23:20:08.563Z,84.72
2018-02-09T23:22:36.174Z,84.85
2018-02-09T23:25:03.770Z,85.05
2018-02-09T23:27:31.370Z,85.56
2018-02-09T23:29:58.987Z,85.40
2018-02-09T23:32:26.706Z,83.46
2018-02-09T23:34:54.287Z,86.12
2018-02-09T23:37:21.880Z,85.48
2018-02-09T23:39:49.582Z,86.21
2018-02-09T23:42:17.176Z,86.51
2018-02-09T23:44:44.763Z,86.77
2018-02-09T23:47:12.399Z,86.54
2018-02-09T23:49:40.000Z,85.83
2018-02-09T23:52:07.589Z,87.00
2018-02-09T23:54:35.183Z,86.70
2018-02-09T23:57:02.866Z,86.82
2018-02-09T23:59:30.531Z,87.07
